»·PEaware :: N447AB KAWO-KVUO

N447AB :: KAWO-KVUO

FLIGHT INFORMATION

Flight Status: Arrived
Operator: Privately registered:
United States
More flights under this callsign
Pilot: Gabor H. (24209)
Aircraft: Unknown
(DA50)
More flights by this aircraft type
Origin: KAWO Arlington Mun
United States
Destination: KVUO Pearson
United States
More flights between these airports :: More routes between these airports
Route: PAE V287 BTG
File this flight plan on PilotEdge
Remarks:
Altitude:
(Current/Filed)
11,000ft
Speed:
(Current/Filed)
170kts
Departed: 30-Nov-23 08:13 PM
Arrived: 30-Nov-23 09:23 PM
Distance/Time
Traveled:
154nm/1:09
Distance/Time
To Go:
Arrived

Flight Plot

Page will automatically refresh every two minutes.

Flight plan parsing failed; only flown route is shown


Map Options




Map Legend


Flown Route
Filed Route
Departure Airport
Arrival Airport
Navaid (VOR, NDB)
Fix

Horizontal Profiles

Position Reports

Time Latitude Longitude Heading Altitude Ground
Speed
30-Nov-23 19:58 48.161234 -122.153780 90 137ft 0kts
30-Nov-23 19:59 48.161234 -122.153780 90 137ft 0kts
30-Nov-23 20:00 48.161234 -122.153780 90 137ft 0kts
30-Nov-23 20:01 48.161234 -122.153780 90 137ft 0kts
30-Nov-23 20:02 48.161234 -122.153780 90 137ft 0kts
30-Nov-23 20:03 48.161234 -122.153780 90 137ft 0kts
30-Nov-23 20:03 48.161234 -122.153780 90 137ft 0kts
30-Nov-23 20:05 48.161234 -122.153780 90 137ft 0kts
30-Nov-23 20:06 48.161234 -122.153780 90 137ft 0kts
30-Nov-23 20:07 48.161234 -122.153780 90 137ft 0kts
30-Nov-23 20:08 48.162005 -122.154283 1 137ft 15kts
30-Nov-23 20:08 48.167900 -122.154416 0 142ft 28kts
30-Nov-23 20:09 48.169640 -122.155407 235 145ft 0kts
30-Nov-23 20:10 48.169640 -122.155406 235 144ft 0kts
30-Nov-23 20:12 48.169623 -122.155436 228 145ft 2kts
30-Nov-23 20:13 48.161463 -122.156475 178 242ft 77kts
30-Nov-23 20:13 48.142627 -122.156728 175 1136ft 79kts
30-Nov-23 20:14 48.121034 -122.155950 177 2244ft 77kts
30-Nov-23 20:15 48.099961 -122.155175 178 3322ft 77kts
30-Nov-23 20:17 48.082864 -122.174278 255 4549ft 89kts
30-Nov-23 20:18 48.080042 -122.211905 255 5579ft 93kts
30-Nov-23 20:18 48.077701 -122.244385 256 6449ft 95kts
30-Nov-23 20:19 48.075156 -122.283415 255 7493ft 95kts
30-Nov-23 20:20 48.072898 -122.322655 256 8539ft 95kts
30-Nov-23 20:21 48.070586 -122.361670 256 9577ft 93kts
30-Nov-23 20:22 48.059352 -122.393007 220 10586ft 88kts
30-Nov-23 20:23 48.037913 -122.422872 222 10991ft 134kts
30-Nov-23 20:24 48.008357 -122.463997 222 10973ft 152kts
30-Nov-23 20:25 47.975991 -122.508878 222 10968ft 161kts
30-Nov-23 20:26 47.942982 -122.554577 223 10969ft 163kts
30-Nov-23 20:27 47.909660 -122.600612 223 10971ft 163kts
30-Nov-23 20:28 47.876506 -122.646310 223 10977ft 162kts
30-Nov-23 20:29 47.849911 -122.698883 250 10980ft 162kts
30-Nov-23 20:30 47.837392 -122.763593 247 10980ft 163kts
30-Nov-23 20:31 47.795585 -122.786267 190 10983ft 167kts
30-Nov-23 20:32 47.749367 -122.794343 188 10982ft 167kts
30-Nov-23 20:33 47.703052 -122.801046 188 10982ft 167kts
30-Nov-23 20:34 47.656703 -122.807547 188 11000ft 167kts
30-Nov-23 20:35 47.610375 -122.814011 188 11000ft 168kts
30-Nov-23 20:36 47.563702 -122.820506 188 11000ft 168kts
30-Nov-23 20:37 47.517098 -122.826961 188 11000ft 168kts
30-Nov-23 20:38 47.470543 -122.833429 188 10998ft 168kts
30-Nov-23 20:39 47.423785 -122.839906 188 10995ft 169kts
30-Nov-23 20:40 47.376810 -122.846406 188 10975ft 169kts
30-Nov-23 20:41 47.330088 -122.852855 188 10980ft 169kts
30-Nov-23 20:42 47.283135 -122.859335 188 10992ft 169kts
30-Nov-23 20:43 47.236261 -122.865765 189 11005ft 169kts
30-Nov-23 20:44 47.188738 -122.872245 188 10989ft 177kts
30-Nov-23 20:45 47.140177 -122.879025 189 10974ft 175kts
30-Nov-23 20:46 47.091951 -122.885521 189 10981ft 173kts
30-Nov-23 20:47 47.044263 -122.892110 190 11010ft 171kts
30-Nov-23 20:48 46.996604 -122.898650 187 10983ft 172kts
30-Nov-23 20:49 46.948412 -122.895554 172 10971ft 179kts
30-Nov-23 20:50 46.900152 -122.883354 174 10978ft 175kts
30-Nov-23 20:51 46.852034 -122.871000 174 11004ft 176kts
30-Nov-23 20:52 46.803730 -122.858511 174 11025ft 175kts
30-Nov-23 20:53 46.755536 -122.846044 173 11036ft 177kts
30-Nov-23 20:54 46.707236 -122.833575 174 11034ft 172kts
30-Nov-23 20:55 46.660378 -122.821650 174 11037ft 171kts
30-Nov-23 20:56 46.613418 -122.809645 174 10965ft 174kts
30-Nov-23 20:57 46.566243 -122.797569 174 10954ft 171kts
30-Nov-23 20:58 46.519315 -122.785595 174 10954ft 171kts
30-Nov-23 20:59 46.472389 -122.773641 174 10955ft 171kts
30-Nov-23 21:00 46.425399 -122.761691 174 10955ft 172kts
30-Nov-23 21:01 46.378234 -122.749713 174 10955ft 172kts
30-Nov-23 21:02 46.331056 -122.737755 174 10955ft 172kts
30-Nov-23 21:03 46.283848 -122.725793 174 10955ft 173kts
30-Nov-23 21:04 46.236432 -122.713833 174 10955ft 173kts
30-Nov-23 21:05 46.189151 -122.701911 174 10978ft 173kts
30-Nov-23 21:06 46.141727 -122.690004 174 11002ft 173kts
30-Nov-23 21:07 46.094401 -122.674241 146 10713ft 186kts
30-Nov-23 21:08 46.060169 -122.616805 127 9884ft 190kts
30-Nov-23 21:09 46.027910 -122.557079 142 9030ft 187kts
30-Nov-23 21:10 45.979820 -122.545002 182 7810ft 172kts
30-Nov-23 21:11 45.933447 -122.543223 182 6622ft 161kts
30-Nov-23 21:12 45.890120 -122.541545 181 5498ft 152kts
30-Nov-23 21:13 45.848731 -122.541232 195 4484ft 143kts
30-Nov-23 21:14 45.811766 -122.558881 200 3876ft 142kts
30-Nov-23 21:15 45.774177 -122.578101 199 3132ft 145kts
30-Nov-23 21:16 45.736378 -122.597499 199 2271ft 135kts
30-Nov-23 21:17 45.705485 -122.613206 197 1812ft 116kts
30-Nov-23 21:18 45.674755 -122.629020 195 1406ft 114kts
30-Nov-23 21:19 45.645947 -122.644283 213 1004ft 108kts
30-Nov-23 21:20 45.643514 -122.679082 228 846ft 82kts
30-Nov-23 21:21 45.624736 -122.679688 118 534ft 73kts
30-Nov-23 21:22 45.620294 -122.655071 98 26ft 37kts
30-Nov-23 21:23 45.621213 -122.652512 273 26ft 16kts
30-Nov-23 21:24 45.622411 -122.654283 159 27ft 0kts
30-Nov-23 21:25 45.622411 -122.654283 159 27ft 0kts
30-Nov-23 21:26 45.622411 -122.654283 159 27ft 0kts
30-Nov-23 21:27 45.622411 -122.654283 159 27ft 0kts
30-Nov-23 21:28 45.622411 -122.654283 159 27ft 0kts
30-Nov-23 21:29 45.622411 -122.654283 159 27ft 0kts
30-Nov-23 21:30 45.622411 -122.654283 159 27ft 0kts
30-Nov-23 21:31 45.622411 -122.654283 159 27ft 0kts
30-Nov-23 21:32 45.622411 -122.654283 159 27ft 0kts

Navigation Log

Ident Type
Flight plan parsing failed, navigation log unavailable